sensor_id;sensor_type;location;lat;lon;timestamp;pressure;altitude;pressure_sealevel;temperature;humidity
9187;BME280;7273;48.902;9.410;2024-03-29T00:00:37;96372.00;;;8.90;56.52
9187;BME280;7273;48.902;9.410;2024-03-29T00:03:03;96370.56;;;8.92;56.23
9187;BME280;7273;48.902;9.410;2024-03-29T00:05:29;96369.19;;;8.95;56.44
9187;BME280;7273;48.902;9.410;2024-03-29T00:07:55;96371.06;;;8.94;56.44
9187;BME280;7273;48.902;9.410;2024-03-29T00:10:20;96367.25;;;8.95;56.35
9187;BME280;7273;48.902;9.410;2024-03-29T00:12:46;96355.69;;;8.95;56.40
9187;BME280;7273;48.902;9.410;2024-03-29T00:15:11;96349.38;;;8.99;56.61
9187;BME280;7273;48.902;9.410;2024-03-29T00:17:37;96341.28;;;8.99;56.04
9187;BME280;7273;48.902;9.410;2024-03-29T00:20:04;96345.75;;;9.04;56.53
9187;BME280;7273;48.902;9.410;2024-03-29T00:22:31;96326.56;;;9.05;56.22
9187;BME280;7273;48.902;9.410;2024-03-29T00:24:56;96326.25;;;9.07;56.71
9187;BME280;7273;48.902;9.410;2024-03-29T00:27:22;96313.41;;;9.04;56.26
9187;BME280;7273;48.902;9.410;2024-03-29T00:29:51;96304.69;;;9.07;56.51
9187;BME280;7273;48.902;9.410;2024-03-29T00:32:19;96307.69;;;9.05;56.20
9187;BME280;7273;48.902;9.410;2024-03-29T00:34:45;96301.69;;;9.08;56.14
9187;BME280;7273;48.902;9.410;2024-03-29T00:37:11;96294.72;;;9.07;56.60
9187;BME280;7273;48.902;9.410;2024-03-29T00:39:37;96281.91;;;9.13;56.11
9187;BME280;7273;48.902;9.410;2024-03-29T00:42:03;96282.09;;;9.16;56.30
9187;BME280;7273;48.902;9.410;2024-03-29T00:44:32;96266.66;;;9.17;56.50
9187;BME280;7273;48.902;9.410;2024-03-29T00:46:57;96268.72;;;9.11;56.44
9187;BME280;7273;48.902;9.410;2024-03-29T00:49:23;96267.31;;;9.14;56.14
9187;BME280;7273;48.902;9.410;2024-03-29T00:51:49;96260.50;;;9.16;56.19
9187;BME280;7273;48.902;9.410;2024-03-29T00:54:14;96266.66;;;9.17;56.10
9187;BME280;7273;48.902;9.410;2024-03-29T00:56:40;96256.38;;;9.19;56.29
9187;BME280;7273;48.902;9.410;2024-03-29T00:59:05;96261.94;;;9.22;56.56
9187;BME280;7273;48.902;9.410;2024-03-29T01:01:31;96261.94;;;9.22;56.67
9187;BME280;7273;48.902;9.410;2024-03-29T01:03:57;96257.34;;;9.23;56.48
9187;BME280;7273;48.902;9.410;2024-03-29T01:06:23;96245.13;;;9.25;56.64
9187;BME280;7273;48.902;9.410;2024-03-29T01:08:48;96244.50;;;9.28;56.16
9187;BME280;7273;48.902;9.410;2024-03-29T01:11:14;96239.91;;;9.29;56.21
9187;BME280;7273;48.902;9.410;2024-03-29T01:13:39;96253.72;;;9.27;56.29
9187;BME280;7273;48.902;9.410;2024-03-29T01:16:05;96260.88;;;9.32;56.24
9187;BME280;7273;48.902;9.410;2024-03-29T01:18:31;96254.06;;;9.34;56.34
9187;BME280;7273;48.902;9.410;2024-03-29T01:20:57;96262.16;;;9.34;56.30
9187;BME280;7273;48.902;9.410;2024-03-29T01:23:23;96254.22;;;9.38;56.24
9187;BME280;7273;48.902;9.410;2024-03-29T01:25:48;96248.81;;;9.38;56.75
9187;BME280;7273;48.902;9.410;2024-03-29T01:28:14;96250.91;;;9.41;56.61
9187;BME280;7273;48.902;9.410;2024-03-29T01:30:39;96251.53;;;9.46;56.22
9187;BME280;7273;48.902;9.410;2024-03-29T01:33:05;96243.63;;;9.50;56.67
9187;BME280;7273;48.902;9.410;2024-03-29T01:35:31;96247.44;;;9.49;56.32
9187;BME280;7273;48.902;9.410;2024-03-29T01:37:56;96249.03;;;9.50;56.70
9187;BME280;7273;48.902;9.410;2024-03-29T01:40:22;96242.19;;;9.52;56.56
9187;BME280;7273;48.902;9.410;2024-03-29T01:42:47;96240.78;;;9.55;56.28
9187;BME280;7273;48.902;9.410;2024-03-29T01:45:13;96239.34;;;9.57;56.17
9187;BME280;7273;48.902;9.410;2024-03-29T01:47:39;96232.69;;;9.55;56.41
9187;BME280;7273;48.902;9.410;2024-03-29T01:50:05;96225.06;;;9.57;56.14
9187;BME280;7273;48.902;9.410;2024-03-29T01:52:31;96213.66;;;9.60;56.30
9187;BME280;7273;48.902;9.410;2024-03-29T01:54:57;96226.03;;;9.61;56.54
9187;BME280;7273;48.902;9.410;2024-03-29T01:57:24;96220.00;;;9.56;55.88
9187;BME280;7273;48.902;9.410;2024-03-29T01:59:49;96224.13;;;9.62;56.57
9187;BME280;7273;48.902;9.410;2024-03-29T02:02:15;96202.38;;;9.58;56.55
9187;BME280;7273;48.902;9.410;2024-03-29T02:04:41;96208.75;;;9.62;56.38
9187;BME280;7273;48.902;9.410;2024-03-29T02:07:07;96218.25;;;9.60;55.90
9187;BME280;7273;48.902;9.410;2024-03-29T02:09:33;96217.59;;;9.63;56.26
9187;BME280;7273;48.902;9.410;2024-03-29T02:11:59;96217.47;;;9.59;56.24
9187;BME280;7273;48.902;9.410;2024-03-29T02:14:25;96199.03;;;9.61;56.41
9187;BME280;7273;48.902;9.410;2024-03-29T02:16:50;96193.00;;;9.64;56.11
9187;BME280;7273;48.902;9.410;2024-03-29T02:19:16;96208.41;;;9.64;55.92
9187;BME280;7273;48.902;9.410;2024-03-29T02:21:45;96215.72;;;9.63;55.98
9187;BME280;7273;48.902;9.410;2024-03-29T02:24:13;96219.22;;;9.64;56.10
9187;BME280;7273;48.902;9.410;2024-03-29T02:26:41;96230.78;;;9.64;55.92
9187;BME280;7273;48.902;9.410;2024-03-29T02:29:08;96202.22;;;9.63;55.77
9187;BME280;7273;48.902;9.410;2024-03-29T02:31:38;96207.31;;;9.65;55.96
9187;BME280;7273;48.902;9.410;2024-03-29T02:34:03;96193.50;;;9.66;55.99
9187;BME280;7273;48.902;9.410;2024-03-29T02:36:29;96207.47;;;9.68;56.14
9187;BME280;7273;48.902;9.410;2024-03-29T02:38:55;96206.97;;;9.66;55.78
9187;BME280;7273;48.902;9.410;2024-03-29T02:41:21;96206.66;;;9.68;56.00
9187;BME280;7273;48.902;9.410;2024-03-29T02:43:47;96211.75;;;9.69;55.83
9187;BME280;7273;48.902;9.410;2024-03-29T02:46:13;96199.84;;;9.70;56.05
9187;BME280;7273;48.902;9.410;2024-03-29T02:48:38;96187.63;;;9.73;55.79
9187;BME280;7273;48.902;9.410;2024-03-29T02:51:04;96197.66;;;9.72;55.83
9187;BME280;7273;48.902;9.410;2024-03-29T02:53:29;96197.66;;;9.72;56.14
9187;BME280;7273;48.902;9.410;2024-03-29T02:55:55;96189.84;;;9.71;55.85
9187;BME280;7273;48.902;9.410;2024-03-29T02:58:20;96191.44;;;9.72;55.98
9187;BME280;7273;48.902;9.410;2024-03-29T03:00:46;96205.56;;;9.77;55.82
9187;BME280;7273;48.902;9.410;2024-03-29T03:03:15;96212.56;;;9.78;56.24
9187;BME280;7273;48.902;9.410;2024-03-29T03:05:41;96215.25;;;9.78;56.00
9187;BME280;7273;48.902;9.410;2024-03-29T03:08:06;96217.16;;;9.78;55.95
9187;BME280;7273;48.902;9.410;2024-03-29T03:10:50;96216.06;;;9.79;56.10
9187;BME280;7273;48.902;9.410;2024-03-29T03:13:21;96209.06;;;9.78;56.12
9187;BME280;7273;48.902;9.410;2024-03-29T03:15:47;96213.03;;;9.80;56.26
9187;BME280;7273;48.902;9.410;2024-03-29T03:18:12;96209.22;;;9.81;56.23
9187;BME280;7273;48.902;9.410;2024-03-29T03:20:38;96211.28;;;9.84;56.21
9187;BME280;7273;48.902;9.410;2024-03-29T03:23:03;96214.78;;;9.85;56.04
9187;BME280;7273;48.902;9.410;2024-03-29T03:25:29;96207.00;;;9.83;56.00
9187;BME280;7273;48.902;9.410;2024-03-29T03:27:54;96211.13;;;9.81;55.96
9187;BME280;7273;48.902;9.410;2024-03-29T03:30:20;96224.31;;;9.82;55.86
9187;BME280;7273;48.902;9.410;2024-03-29T03:32:46;96219.84;;;9.78;56.08
9187;BME280;7273;48.902;9.410;2024-03-29T03:35:11;96215.56;;;9.77;56.58
9187;BME280;7273;48.902;9.410;2024-03-29T03:37:37;96232.41;;;9.74;56.30
9187;BME280;7273;48.902;9.410;2024-03-29T03:40:02;96234.78;;;9.67;55.66
9187;BME280;7273;48.902;9.410;2024-03-29T03:42:29;96243.53;;;9.72;55.65
9187;BME280;7273;48.902;9.410;2024-03-29T03:44:55;96250.19;;;9.75;55.77
9187;BME280;7273;48.902;9.410;2024-03-29T03:47:20;96250.84;;;9.80;55.75
9187;BME280;7273;48.902;9.410;2024-03-29T03:49:46;96248.59;;;9.82;55.58
9187;BME280;7273;48.902;9.410;2024-03-29T03:52:11;96255.59;;;9.83;55.46
9187;BME280;7273;48.902;9.410;2024-03-29T03:54:36;96276.72;;;9.81;54.94
9187;BME280;7273;48.902;9.410;2024-03-29T03:57:02;96284.50;;;9.83;55.21
9187;BME280;7273;48.902;9.410;2024-03-29T03:59:27;96264.47;;;9.84;55.10
9187;BME280;7273;48.902;9.410;2024-03-29T04:01:53;96312.91;;;9.80;53.18
9187;BME280;7273;48.902;9.410;2024-03-29T04:04:19;96299.88;;;9.82;54.31
9187;BME280;7273;48.902;9.410;2024-03-29T04:06:44;96283.22;;;9.80;55.10
9187;BME280;7273;48.902;9.410;2024-03-29T04:09:10;96298.47;;;9.85;55.52
9187;BME280;7273;48.902;9.410;2024-03-29T04:11:36;96286.25;;;9.79;55.93
9187;BME280;7273;48.902;9.410;2024-03-29T04:14:01;96265.25;;;9.76;55.59
9187;BME280;7273;48.902;9.410;2024-03-29T04:16:26;96261.00;;;9.83;54.75
9187;BME280;7273;48.902;9.410;2024-03-29T04:18:52;96256.22;;;9.89;54.59
9187;BME280;7273;48.902;9.410;2024-03-29T04:21:17;96247.19;;;9.93;54.51
9187;BME280;7273;48.902;9.410;2024-03-29T04:23:43;96236.22;;;9.90;55.10
9187;BME280;7273;48.902;9.410;2024-03-29T04:26:08;96221.28;;;9.92;55.00
9187;BME280;7273;48.902;9.410;2024-03-29T04:28:33;96210.16;;;9.94;55.03
9187;BME280;7273;48.902;9.410;2024-03-29T04:31:00;96196.22;;;9.92;55.13
9187;BME280;7273;48.902;9.410;2024-03-29T04:33:26;96196.34;;;9.95;55.39
9187;BME280;7273;48.902;9.410;2024-03-29T04:35:55;96203.34;;;9.96;55.63
9187;BME280;7273;48.902;9.410;2024-03-29T04:38:21;96201.75;;;9.95;54.83
9187;BME280;7273;48.902;9.410;2024-03-29T04:40:48;96209.25;;;9.98;55.07
9187;BME280;7273;48.902;9.410;2024-03-29T04:43:13;96201.91;;;9.99;54.79
9187;BME280;7273;48.902;9.410;2024-03-29T04:45:39;96211.78;;;10.03;54.72
9187;BME280;7273;48.902;9.410;2024-03-29T04:48:04;96201.75;;;10.04;54.90
9187;BME280;7273;48.902;9.410;2024-03-29T04:50:30;96240.84;;;10.06;54.48
9187;BME280;7273;48.902;9.410;2024-03-29T04:52:55;96257.38;;;10.13;54.75
9187;BME280;7273;48.902;9.410;2024-03-29T04:55:20;96278.84;;;10.18;54.05
9187;BME280;7273;48.902;9.410;2024-03-29T04:57:46;96285.84;;;10.19;54.01
9187;BME280;7273;48.902;9.410;2024-03-29T05:00:11;96309.81;;;10.12;54.14
9187;BME280;7273;48.902;9.410;2024-03-29T05:02:37;96276.28;;;10.13;54.56
9187;BME280;7273;48.902;9.410;2024-03-29T05:05:03;96269.63;;;10.19;54.35
9187;BME280;7273;48.902;9.410;2024-03-29T05:07:28;96236.75;;;10.17;53.88
9187;BME280;7273;48.902;9.410;2024-03-29T05:09:54;96224.03;;;10.18;53.78
9187;BME280;7273;48.902;9.410;2024-03-29T05:12:21;96214.34;;;10.25;53.78
9187;BME280;7273;48.902;9.410;2024-03-29T05:14:46;96194.00;;;10.28;53.21
9187;BME280;7273;48.902;9.410;2024-03-29T05:17:14;96170.63;;;10.32;53.75
9187;BME280;7273;48.902;9.410;2024-03-29T05:19:40;96165.22;;;10.32;53.74
9187;BME280;7273;48.902;9.410;2024-03-29T05:22:05;96160.94;;;10.31;53.99
9187;BME280;7273;48.902;9.410;2024-03-29T05:24:31;96165.88;;;10.29;54.55
9187;BME280;7273;48.902;9.410;2024-03-29T05:26:56;96173.31;;;10.32;54.64
9187;BME280;7273;48.902;9.410;2024-03-29T05:29:22;96185.09;;;10.27;54.39
9187;BME280;7273;48.902;9.410;2024-03-29T05:31:48;96182.22;;;10.32;54.44
9187;BME280;7273;48.902;9.410;2024-03-29T05:34:13;96187.78;;;10.36;54.42
9187;BME280;7273;48.902;9.410;2024-03-29T05:36:39;96192.06;;;10.37;54.30
9187;BME280;7273;48.902;9.410;2024-03-29T05:39:05;96188.72;;;10.40;54.39
9187;BME280;7273;48.902;9.410;2024-03-29T05:41:31;96190.00;;;10.42;54.35
9187;BME280;7273;48.902;9.410;2024-03-29T05:44:00;96187.31;;;10.42;54.46
9187;BME280;7273;48.902;9.410;2024-03-29T05:46:25;96198.88;;;10.43;50.90
9187;BME280;7273;48.902;9.410;2024-03-29T05:48:50;96192.84;;;10.46;54.01
9187;BME280;7273;48.902;9.410;2024-03-29T05:51:16;96186.34;;;10.47;54.20
9187;BME280;7273;48.902;9.410;2024-03-29T05:53:41;96188.38;;;10.50;53.82
9187;BME280;7273;48.902;9.410;2024-03-29T05:56:07;96197.44;;;10.54;53.98
9187;BME280;7273;48.902;9.410;2024-03-29T05:58:35;96202.53;;;10.55;53.96
9187;BME280;7273;48.902;9.410;2024-03-29T06:01:01;96197.25;;;10.59;54.08
9187;BME280;7273;48.902;9.410;2024-03-29T06:03:27;96197.56;;;10.57;54.17
9187;BME280;7273;48.902;9.410;2024-03-29T06:05:53;96191.22;;;10.62;54.30
9187;BME280;7273;48.902;9.410;2024-03-29T06:08:18;96190.09;;;10.63;53.98
9187;BME280;7273;48.902;9.410;2024-03-29T06:10:46;96202.31;;;10.69;54.29
9187;BME280;7273;48.902;9.410;2024-03-29T06:13:12;96205.03;;;10.69;54.13
9187;BME280;7273;48.902;9.410;2024-03-29T06:15:57;96216.63;;;10.69;54.16
9187;BME280;7273;48.902;9.410;2024-03-29T06:18:41;96223.94;;;10.69;54.30
9187;BME280;7273;48.902;9.410;2024-03-29T06:21:07;96227.94;;;10.71;54.14
9187;BME280;7273;48.902;9.410;2024-03-29T06:23:33;96230.78;;;10.75;54.14
9187;BME280;7273;48.902;9.410;2024-03-29T06:25:58;96223.94;;;10.77;53.81
9187;BME280;7273;48.902;9.410;2024-03-29T06:28:23;96215.50;;;10.79;53.99
9187;BME280;7273;48.902;9.410;2024-03-29T06:30:49;96215.97;;;10.81;54.13
9187;BME280;7273;48.902;9.410;2024-03-29T06:33:14;96217.22;;;10.83;54.13
9187;BME280;7273;48.902;9.410;2024-03-29T06:35:39;96216.28;;;10.88;53.94
9187;BME280;7273;48.902;9.410;2024-03-29T06:38:05;96222.13;;;10.90;54.03
9187;BME280;7273;48.902;9.410;2024-03-29T06:40:30;96230.13;;;10.87;54.11
9187;BME280;7273;48.902;9.410;2024-03-29T06:42:56;96236.44;;;10.91;54.26
9187;BME280;7273;48.902;9.410;2024-03-29T06:45:23;96231.38;;;10.89;53.84
9187;BME280;7273;48.902;9.410;2024-03-29T06:47:48;96239.97;;;10.91;54.14
9187;BME280;7273;48.902;9.410;2024-03-29T06:50:14;96240.75;;;10.92;54.28
9187;BME280;7273;48.902;9.410;2024-03-29T06:52:39;96240.44;;;10.93;54.25
9187;BME280;7273;48.902;9.410;2024-03-29T06:55:05;96232.78;;;10.95;54.20
9187;BME280;7273;48.902;9.410;2024-03-29T06:57:31;96225.47;;;10.96;53.98
9187;BME280;7273;48.902;9.410;2024-03-29T06:59:57;96221.78;;;11.00;53.96
9187;BME280;7273;48.902;9.410;2024-03-29T07:02:23;96226.25;;;11.05;53.75
9187;BME280;7273;48.902;9.410;2024-03-29T07:04:49;96224.78;;;11.07;54.03
9187;BME280;7273;48.902;9.410;2024-03-29T07:07:14;96216.34;;;11.09;54.09
9187;BME280;7273;48.902;9.410;2024-03-29T07:09:39;96211.41;;;11.11;54.25
9187;BME280;7273;48.902;9.410;2024-03-29T07:12:05;96217.44;;;11.16;54.20
9187;BME280;7273;48.902;9.410;2024-03-29T07:14:31;96211.38;;;11.19;54.48
9187;BME280;7273;48.902;9.410;2024-03-29T07:16:58;96208.34;;;11.21;54.57
9187;BME280;7273;48.902;9.410;2024-03-29T07:19:24;96200.81;;;11.26;53.87
9187;BME280;7273;48.902;9.410;2024-03-29T07:21:49;96200.31;;;11.33;54.25
9187;BME280;7273;48.902;9.410;2024-03-29T07:24:18;96199.78;;;11.39;54.09
9187;BME280;7273;48.902;9.410;2024-03-29T07:26:43;96204.56;;;11.42;54.33
9187;BME280;7273;48.902;9.410;2024-03-29T07:29:10;96195.81;;;11.45;54.83
9187;BME280;7273;48.902;9.410;2024-03-29T07:31:35;96207.09;;;11.47;54.92
9187;BME280;7273;48.902;9.410;2024-03-29T07:34:01;96210.25;;;11.49;54.96
9187;BME280;7273;48.902;9.410;2024-03-29T07:36:26;96224.59;;;11.50;55.00
9187;BME280;7273;48.902;9.410;2024-03-29T07:38:57;96230.47;;;11.52;55.06
9187;BME280;7273;48.902;9.410;2024-03-29T07:41:23;96248.47;;;11.48;55.62
9187;BME280;7273;48.902;9.410;2024-03-29T07:43:53;96248.00;;;11.46;55.66
9187;BME280;7273;48.902;9.410;2024-03-29T07:46:27;96249.94;;;11.45;55.59
9187;BME280;7273;48.902;9.410;2024-03-29T07:48:52;96262.72;;;11.28;56.71
9187;BME280;7273;48.902;9.410;2024-03-29T07:51:17;96269.13;;;11.23;57.16
9187;BME280;7273;48.902;9.410;2024-03-29T07:53:43;96268.88;;;11.08;56.96
9187;BME280;7273;48.902;9.410;2024-03-29T07:56:09;96258.59;;;10.84;57.07
9187;BME280;7273;48.902;9.410;2024-03-29T07:58:34;96278.47;;;10.79;57.05
9187;BME280;7273;48.902;9.410;2024-03-29T08:01:00;96284.06;;;10.66;57.45
9187;BME280;7273;48.902;9.410;2024-03-29T08:03:25;96292.97;;;10.58;57.70
9187;BME280;7273;48.902;9.410;2024-03-29T08:06:09;96317.13;;;10.20;60.20
9187;BME280;7273;48.902;9.410;2024-03-29T08:08:34;96323.00;;;10.14;59.15
9187;BME280;7273;48.902;9.410;2024-03-29T08:11:00;96326.47;;;10.06;59.57
9187;BME280;7273;48.902;9.410;2024-03-29T08:13:26;96337.69;;;9.91;59.93
9187;BME280;7273;48.902;9.410;2024-03-29T08:15:59;96344.69;;;9.83;59.50
9187;BME280;7273;48.902;9.410;2024-03-29T08:18:28;96357.63;;;9.56;60.56
9187;BME280;7273;48.902;9.410;2024-03-29T08:20:54;96354.38;;;9.45;60.18
9187;BME280;7273;48.902;9.410;2024-03-29T08:23:25;96360.97;;;9.30;60.90
9187;BME280;7273;48.902;9.410;2024-03-29T08:25:50;96362.03;;;9.21;60.99
9187;BME280;7273;48.902;9.410;2024-03-29T08:28:19;96371.50;;;9.10;62.09
9187;BME280;7273;48.902;9.410;2024-03-29T08:30:45;96367.19;;;9.09;61.43
9187;BME280;7273;48.902;9.410;2024-03-29T08:33:10;96382.41;;;9.05;62.16
9187;BME280;7273;48.902;9.410;2024-03-29T08:35:36;96379.84;;;9.00;62.16
9187;BME280;7273;48.902;9.410;2024-03-29T08:38:02;96379.34;;;8.98;61.82
9187;BME280;7273;48.902;9.410;2024-03-29T08:40:29;96399.44;;;8.92;62.84
9187;BME280;7273;48.902;9.410;2024-03-29T08:42:59;96396.69;;;8.83;62.38
9187;BME280;7273;48.902;9.410;2024-03-29T08:45:24;96412.78;;;8.75;62.98
9187;BME280;7273;48.902;9.410;2024-03-29T08:47:50;96414.00;;;8.69;63.80
9187;BME280;7273;48.902;9.410;2024-03-29T08:50:15;96424.97;;;8.72;63.74
9187;BME280;7273;48.902;9.410;2024-03-29T08:52:41;96413.91;;;8.74;63.30
9187;BME280;7273;48.902;9.410;2024-03-29T08:55:07;96405.19;;;8.77;63.53
9187;BME280;7273;48.902;9.410;2024-03-29T08:57:32;96412.97;;;8.78;63.61
9187;BME280;7273;48.902;9.410;2024-03-29T08:59:58;96403.47;;;8.81;63.85
9187;BME280;7273;48.902;9.410;2024-03-29T09:02:23;96419.81;;;8.84;64.10
9187;BME280;7273;48.902;9.410;2024-03-29T09:04:49;96406.03;;;8.86;64.54
9187;BME280;7273;48.902;9.410;2024-03-29T09:07:14;96409.75;;;8.90;64.25
9187;BME280;7273;48.902;9.410;2024-03-29T09:09:40;96416.78;;;8.99;63.75
9187;BME280;7273;48.902;9.410;2024-03-29T09:12:08;96415.53;;;9.05;64.02
9187;BME280;7273;48.902;9.410;2024-03-29T09:14:33;96407.31;;;9.10;63.83
9187;BME280;7273;48.902;9.410;2024-03-29T09:16:59;96402.94;;;9.14;64.23
9187;BME280;7273;48.902;9.410;2024-03-29T09:19:24;96400.59;;;9.21;64.74
9187;BME280;7273;48.902;9.410;2024-03-29T09:21:50;96377.28;;;9.25;65.00
9187;BME280;7273;48.902;9.410;2024-03-29T09:24:15;96376.97;;;9.27;65.22
9187;BME280;7273;48.902;9.410;2024-03-29T09:26:43;96371.59;;;9.27;65.32
9187;BME280;7273;48.902;9.410;2024-03-29T09:29:08;96363.19;;;9.28;66.03
9187;BME280;7273;48.902;9.410;2024-03-29T09:31:34;96368.56;;;9.28;65.93
9187;BME280;7273;48.902;9.410;2024-03-29T09:34:00;96377.41;;;9.20;65.77
9187;BME280;7273;48.902;9.410;2024-03-29T09:36:25;96390.59;;;9.22;65.90
9187;BME280;7273;48.902;9.410;2024-03-29T09:38:51;96409.34;;;9.27;65.59
9187;BME280;7273;48.902;9.410;2024-03-29T09:41:18;96416.50;;;9.31;65.33
9187;BME280;7273;48.902;9.410;2024-03-29T09:43:47;96403.50;;;9.33;65.47
9187;BME280;7273;48.902;9.410;2024-03-29T09:46:14;96403.69;;;9.37;65.55
9187;BME280;7273;48.902;9.410;2024-03-29T09:48:44;96408.59;;;9.35;65.83
9187;BME280;7273;48.902;9.410;2024-03-29T09:51:13;96394.03;;;9.36;65.58
9187;BME280;7273;48.902;9.410;2024-03-29T09:53:42;96381.00;;;9.38;65.55
9187;BME280;7273;48.902;9.410;2024-03-29T09:56:09;96368.50;;;9.42;65.55
9187;BME280;7273;48.902;9.410;2024-03-29T09:58:36;96340.88;;;9.45;65.54
9187;BME280;7273;48.902;9.410;2024-03-29T10:01:06;96322.50;;;9.47;65.86
9187;BME280;7273;48.902;9.410;2024-03-29T10:03:42;96325.53;;;9.54;66.41
9187;BME280;7273;48.902;9.410;2024-03-29T10:06:10;96322.53;;;9.56;65.88
9187;BME280;7273;48.902;9.410;2024-03-29T10:08:38;96321.28;;;9.62;66.22
9187;BME280;7273;48.902;9.410;2024-03-29T10:11:03;96304.13;;;9.66;66.22
9187;BME280;7273;48.902;9.410;2024-03-29T10:13:29;96307.81;;;9.70;66.55
9187;BME280;7273;48.902;9.410;2024-03-29T10:15:55;96355.28;;;9.71;66.46
9187;BME280;7273;48.902;9.410;2024-03-29T10:18:27;96313.03;;;9.67;66.75
9187;BME280;7273;48.902;9.410;2024-03-29T10:21:03;96342.59;;;9.72;66.79
9187;BME280;7273;48.902;9.410;2024-03-29T10:23:29;96333.06;;;9.74;66.59
9187;BME280;7273;48.902;9.410;2024-03-29T10:25:55;96337.81;;;9.77;66.57
9187;BME280;7273;48.902;9.410;2024-03-29T10:28:20;96333.06;;;9.83;66.90
9187;BME280;7273;48.902;9.410;2024-03-29T10:30:46;96331.34;;;9.87;66.84
9187;BME280;7273;48.902;9.410;2024-03-29T10:33:13;96337.88;;;9.94;67.17
9187;BME280;7273;48.902;9.410;2024-03-29T10:35:41;96325.19;;;10.03;67.19
9187;BME280;7273;48.902;9.410;2024-03-29T10:38:07;96309.66;;;10.09;67.15
9187;BME280;7273;48.902;9.410;2024-03-29T10:40:34;96318.09;;;10.16;67.20
9187;BME280;7273;48.902;9.410;2024-03-29T10:42:59;96320.63;;;10.21;67.32
9187;BME280;7273;48.902;9.410;2024-03-29T10:45:29;96316.19;;;10.25;67.39
9187;BME280;7273;48.902;9.410;2024-03-29T10:47:55;96324.63;;;10.32;67.13
9187;BME280;7273;48.902;9.410;2024-03-29T10:50:22;96315.88;;;10.35;67.04
9187;BME280;7273;48.902;9.410;2024-03-29T10:52:48;96318.72;;;10.38;67.00
9187;BME280;7273;48.902;9.410;2024-03-29T10:55:14;96334.97;;;10.47;67.18
9187;BME280;7273;48.902;9.410;2024-03-29T10:57:41;96316.53;;;10.49;67.07
9187;BME280;7273;48.902;9.410;2024-03-29T11:00:15;96326.84;;;10.55;67.19
9187;BME280;7273;48.902;9.410;2024-03-29T11:02:57;96332.09;;;10.60;67.16
9187;BME280;7273;48.902;9.410;2024-03-29T11:05:29;96323.97;;;10.69;66.97
9187;BME280;7273;48.902;9.410;2024-03-29T11:07:56;96322.38;;;10.76;66.86
9187;BME280;7273;48.902;9.410;2024-03-29T11:10:29;96324.28;;;10.84;66.89
9187;BME280;7273;48.902;9.410;2024-03-29T11:13:07;96321.88;;;10.92;67.08
9187;BME280;7273;48.902;9.410;2024-03-29T11:15:37;96327.91;;;10.97;67.34
9187;BME280;7273;48.902;9.410;2024-03-29T11:18:05;96317.72;;;11.03;67.61
9187;BME280;7273;48.902;9.410;2024-03-29T11:20:32;96316.09;;;11.10;67.63
9187;BME280;7273;48.902;9.410;2024-03-29T11:23:14;96300.47;;;11.24;67.49
9187;BME280;7273;48.902;9.410;2024-03-29T11:25:51;96296.94;;;11.32;67.33
9187;BME280;7273;48.902;9.410;2024-03-29T11:28:27;96294.66;;;11.43;67.25
9187;BME280;7273;48.902;9.410;2024-03-29T11:30:56;96299.56;;;11.49;67.18
9187;BME280;7273;48.902;9.410;2024-03-29T11:33:35;96296.19;;;11.61;67.73
9187;BME280;7273;48.902;9.410;2024-03-29T11:36:11;96296.16;;;11.69;68.33
9187;BME280;7273;48.902;9.410;2024-03-29T11:38:38;96294.84;;;11.75;68.06
9187;BME280;7273;48.902;9.410;2024-03-29T11:43:35;96283.41;;;11.99;67.12
9187;BME280;7273;48.902;9.410;2024-03-29T11:46:02;96289.56;;;12.08;66.97
9187;BME280;7273;48.902;9.410;2024-03-29T11:48:29;96282.16;;;12.17;67.04
9187;BME280;7273;48.902;9.410;2024-03-29T11:50:59;96277.47;;;12.26;67.00
9187;BME280;7273;48.902;9.410;2024-03-29T11:53:24;96277.88;;;12.37;67.20
9187;BME280;7273;48.902;9.410;2024-03-29T11:55:50;96275.78;;;12.42;67.12
9187;BME280;7273;48.902;9.410;2024-03-29T11:58:22;96283.38;;;12.49;67.09
9187;BME280;7273;48.902;9.410;2024-03-29T12:00:48;96289.97;;;12.60;66.83
9187;BME280;7273;48.902;9.410;2024-03-29T12:03:15;96295.97;;;12.65;66.52
9187;BME280;7273;48.902;9.410;2024-03-29T12:05:42;96306.50;;;12.67;67.12
9187;BME280;7273;48.902;9.410;2024-03-29T12:08:07;96319.38;;;12.70;67.59
9187;BME280;7273;48.902;9.410;2024-03-29T12:10:35;96326.38;;;12.71;67.21
9187;BME280;7273;48.902;9.410;2024-03-29T12:13:01;96333.53;;;12.75;67.11
9187;BME280;7273;48.902;9.410;2024-03-29T12:15:27;96342.81;;;12.74;67.20
9187;BME280;7273;48.902;9.410;2024-03-29T12:17:57;96347.41;;;12.74;67.40
9187;BME280;7273;48.902;9.410;2024-03-29T12:20:23;96345.50;;;12.74;67.55
9187;BME280;7273;48.902;9.410;2024-03-29T12:22:48;96344.50;;;12.79;67.42
9187;BME280;7273;48.902;9.410;2024-03-29T12:25:14;96333.00;;;12.82;67.53
9187;BME280;7273;48.902;9.410;2024-03-29T12:27:39;96329.72;;;12.88;67.24
9187;BME280;7273;48.902;9.410;2024-03-29T12:30:07;96324.69;;;12.99;67.67
9187;BME280;7273;48.902;9.410;2024-03-29T12:32:33;96314.56;;;13.08;67.57
9187;BME280;7273;48.902;9.410;2024-03-29T12:35:14;96316.31;;;13.24;67.33
9187;BME280;7273;48.902;9.410;2024-03-29T12:37:50;96320.22;;;13.35;67.22
9187;BME280;7273;48.902;9.410;2024-03-29T12:40:17;96322.69;;;13.40;67.51
9187;BME280;7273;48.902;9.410;2024-03-29T12:42:49;96311.25;;;13.47;67.73
9187;BME280;7273;48.902;9.410;2024-03-29T12:45:17;96303.47;;;13.58;67.78
9187;BME280;7273;48.902;9.410;2024-03-29T12:47:47;96308.94;;;13.70;67.62
9187;BME280;7273;48.902;9.410;2024-03-29T12:50:14;96292.50;;;13.78;67.13
9187;BME280;7273;48.902;9.410;2024-03-29T12:52:44;96307.91;;;13.86;66.73
9187;BME280;7273;48.902;9.410;2024-03-29T12:55:09;96304.06;;;13.87;66.61
9187;BME280;7273;48.902;9.410;2024-03-29T12:57:37;96327.38;;;13.88;66.21
9187;BME280;7273;48.902;9.410;2024-03-29T13:00:03;96327.38;;;13.88;66.95
9187;BME280;7273;48.902;9.410;2024-03-29T13:02:36;96313.44;;;13.90;67.00
9187;BME280;7273;48.902;9.410;2024-03-29T13:05:05;96315.16;;;13.94;70.74
9187;BME280;7273;48.902;9.410;2024-03-29T13:07:31;96318.22;;;13.93;67.38
9187;BME280;7273;48.902;9.410;2024-03-29T13:09:57;96333.03;;;13.95;66.99
9187;BME280;7273;48.902;9.410;2024-03-29T13:12:24;96340.72;;;13.93;67.03
9187;BME280;7273;48.902;9.410;2024-03-29T13:14:50;96343.44;;;13.93;67.03
9187;BME280;7273;48.902;9.410;2024-03-29T13:17:15;96334.53;;;13.93;67.19
9187;BME280;7273;48.902;9.410;2024-03-29T13:19:40;96331.47;;;13.94;67.13
9187;BME280;7273;48.902;9.410;2024-03-29T13:22:06;96334.59;;;13.96;67.28
9187;BME280;7273;48.902;9.410;2024-03-29T13:24:32;96323.97;;;14.03;67.48
9187;BME280;7273;48.902;9.410;2024-03-29T13:26:57;96326.56;;;14.12;67.34